sensor_id;sensor_type;location;lat;lon;timestamp;pressure;altitude;pressure_sealevel;temperature;humidity
70684;BME280;58263;48.146;11.440;2024-03-17T00:02:12;96370.94;;;8.03;95.01
70684;BME280;58263;48.146;11.440;2024-03-17T00:04:37;96376.13;;;8.11;94.63
70684;BME280;58263;48.146;11.440;2024-03-17T00:07:02;96368.94;;;8.19;93.51
70684;BME280;58263;48.146;11.440;2024-03-17T00:09:28;96357.03;;;8.21;94.80
70684;BME280;58263;48.146;11.440;2024-03-17T00:11:54;96344.94;;;8.32;94.53
70684;BME280;58263;48.146;11.440;2024-03-17T00:14:20;96354.34;;;8.15;93.98
70684;BME280;58263;48.146;11.440;2024-03-17T00:16:47;96366.81;;;8.01;95.38
70684;BME280;58263;48.146;11.440;2024-03-17T00:19:12;96362.34;;;8.15;94.59
70684;BME280;58263;48.146;11.440;2024-03-17T00:21:37;96366.03;;;8.13;94.55
70684;BME280;58263;48.146;11.440;2024-03-17T00:24:03;96366.06;;;8.20;94.72
70684;BME280;58263;48.146;11.440;2024-03-17T00:26:28;96368.16;;;8.25;94.43
70684;BME280;58263;48.146;11.440;2024-03-17T00:28:54;96360.47;;;8.08;94.80
70684;BME280;58263;48.146;11.440;2024-03-17T00:31:19;96377.78;;;8.19;95.06
70684;BME280;58263;48.146;11.440;2024-03-17T00:33:45;96369.38;;;8.22;95.07
70684;BME280;58263;48.146;11.440;2024-03-17T00:36:11;96365.91;;;8.28;95.41
70684;BME280;58263;48.146;11.440;2024-03-17T00:38:36;96369.00;;;8.32;95.67
70684;BME280;58263;48.146;11.440;2024-03-17T00:41:03;96364.69;;;8.31;95.20
70684;BME280;58263;48.146;11.440;2024-03-17T00:43:28;96367.53;;;8.23;95.42
70684;BME280;58263;48.146;11.440;2024-03-17T00:45:53;96355.44;;;8.34;94.99
70684;BME280;58263;48.146;11.440;2024-03-17T00:48:19;96359.09;;;8.26;95.38
70684;BME280;58263;48.146;11.440;2024-03-17T00:50:44;96350.88;;;8.27;95.20
70684;BME280;58263;48.146;11.440;2024-03-17T00:53:10;96365.09;;;8.28;94.61
70684;BME280;58263;48.146;11.440;2024-03-17T00:55:36;96355.41;;;8.27;94.77
70684;BME280;58263;48.146;11.440;2024-03-17T00:58:01;96370.84;;;8.25;94.46
70684;BME280;58263;48.146;11.440;2024-03-17T01:00:26;96362.44;;;8.35;93.49
70684;BME280;58263;48.146;11.440;2024-03-17T01:02:51;96360.72;;;8.20;93.63
70684;BME280;58263;48.146;11.440;2024-03-17T01:05:17;96358.72;;;8.29;92.85
70684;BME280;58263;48.146;11.440;2024-03-17T01:07:42;96353.09;;;8.10;94.71
70684;BME280;58263;48.146;11.440;2024-03-17T01:10:08;96358.44;;;8.10;94.38
70684;BME280;58263;48.146;11.440;2024-03-17T01:12:34;96350.84;;;8.14;93.66
70684;BME280;58263;48.146;11.440;2024-03-17T01:14:59;96350.88;;;8.21;92.88
70684;BME280;58263;48.146;11.440;2024-03-17T01:17:25;96355.38;;;8.20;93.42
70684;BME280;58263;48.146;11.440;2024-03-17T01:19:50;96344.91;;;8.19;93.17
70684;BME280;58263;48.146;11.440;2024-03-17T01:22:16;96340.81;;;8.23;91.89
70684;BME280;58263;48.146;11.440;2024-03-17T01:24:42;96340.81;;;8.23;92.86
70684;BME280;58263;48.146;11.440;2024-03-17T01:27:11;96338.97;;;8.30;92.42
70684;BME280;58263;48.146;11.440;2024-03-17T01:29:39;96341.81;;;8.22;91.75
70684;BME280;58263;48.146;11.440;2024-03-17T01:32:04;96344.09;;;8.18;91.64
70684;BME280;58263;48.146;11.440;2024-03-17T01:34:31;96331.53;;;8.19;91.30
70684;BME280;58263;48.146;11.440;2024-03-17T01:36:56;96327.41;;;8.09;91.00
70684;BME280;58263;48.146;11.440;2024-03-17T01:39:21;96331.25;;;7.93;91.34
70684;BME280;58263;48.146;11.440;2024-03-17T01:41:47;96328.75;;;7.92;90.71
70684;BME280;58263;48.146;11.440;2024-03-17T01:44:28;96328.94;;;7.84;91.39
70684;BME280;58263;48.146;11.440;2024-03-17T01:46:55;96330.44;;;7.58;92.22
70684;BME280;58263;48.146;11.440;2024-03-17T01:49:21;96327.03;;;7.36;93.70
70684;BME280;58263;48.146;11.440;2024-03-17T01:51:48;96333.56;;;7.33;94.64
70684;BME280;58263;48.146;11.440;2024-03-17T01:54:14;96327.47;;;7.39;94.52
70684;BME280;58263;48.146;11.440;2024-03-17T01:56:40;96328.16;;;7.55;93.76
70684;BME280;58263;48.146;11.440;2024-03-17T01:59:07;96323.47;;;7.57;93.32
70684;BME280;58263;48.146;11.440;2024-03-17T02:01:34;96325.09;;;7.58;93.10
70684;BME280;58263;48.146;11.440;2024-03-17T02:03:59;96323.59;;;7.42;94.39
70684;BME280;58263;48.146;11.440;2024-03-17T02:06:25;96328.34;;;7.47;94.46
70684;BME280;58263;48.146;11.440;2024-03-17T02:08:51;96320.13;;;7.48;94.45
70684;BME280;58263;48.146;11.440;2024-03-17T02:11:31;96318.47;;;7.40;94.45
70684;BME280;58263;48.146;11.440;2024-03-17T02:13:59;96323.84;;;7.54;95.03
70684;BME280;58263;48.146;11.440;2024-03-17T02:16:25;96324.00;;;7.45;95.03
70684;BME280;58263;48.146;11.440;2024-03-17T02:18:57;96321.34;;;7.45;95.11
70684;BME280;58263;48.146;11.440;2024-03-17T02:21:23;96318.38;;;7.27;95.75
70684;BME280;58263;48.146;11.440;2024-03-17T02:23:50;96311.31;;;7.48;94.65
70684;BME280;58263;48.146;11.440;2024-03-17T02:26:15;96318.13;;;7.57;94.73
70684;BME280;58263;48.146;11.440;2024-03-17T02:28:45;96310.34;;;7.62;94.59
70684;BME280;58263;48.146;11.440;2024-03-17T02:31:12;96302.53;;;7.60;94.89
70684;BME280;58263;48.146;11.440;2024-03-17T02:33:38;96299.28;;;7.65;94.62
70684;BME280;58263;48.146;11.440;2024-03-17T02:36:04;96294.56;;;7.67;94.72
70684;BME280;58263;48.146;11.440;2024-03-17T02:38:30;96291.50;;;7.70;94.37
70684;BME280;58263;48.146;11.440;2024-03-17T02:41:15;96293.97;;;7.72;93.89
70684;BME280;58263;48.146;11.440;2024-03-17T02:43:40;96282.44;;;7.71;93.94
70684;BME280;58263;48.146;11.440;2024-03-17T02:46:06;96289.88;;;7.76;93.65
70684;BME280;58263;48.146;11.440;2024-03-17T02:48:33;96285.34;;;7.76;93.08
70684;BME280;58263;48.146;11.440;2024-03-17T02:50:58;96275.91;;;7.81;93.62
70684;BME280;58263;48.146;11.440;2024-03-17T02:53:23;96270.59;;;7.81;93.51
70684;BME280;58263;48.146;11.440;2024-03-17T02:55:49;96273.88;;;7.76;93.26
70684;BME280;58263;48.146;11.440;2024-03-17T02:58:14;96264.00;;;7.76;93.60
70684;BME280;58263;48.146;11.440;2024-03-17T03:00:40;96262.75;;;7.72;93.28
70684;BME280;58263;48.146;11.440;2024-03-17T03:03:05;96264.16;;;7.68;93.42
70684;BME280;58263;48.146;11.440;2024-03-17T03:05:30;96264.81;;;7.70;93.61
70684;BME280;58263;48.146;11.440;2024-03-17T03:07:56;96269.59;;;7.47;93.98
70684;BME280;58263;48.146;11.440;2024-03-17T03:10:21;96273.69;;;7.42;94.96
70684;BME280;58263;48.146;11.440;2024-03-17T03:12:47;96276.03;;;7.24;96.39
70684;BME280;58263;48.146;11.440;2024-03-17T03:15:12;96276.69;;;7.26;96.25
70684;BME280;58263;48.146;11.440;2024-03-17T03:17:38;96263.34;;;7.26;96.38
70684;BME280;58263;48.146;11.440;2024-03-17T03:20:03;96275.28;;;7.30;96.55
70684;BME280;58263;48.146;11.440;2024-03-17T03:22:30;96284.88;;;7.24;96.90
70684;BME280;58263;48.146;11.440;2024-03-17T03:24:56;96277.25;;;7.15;97.99
70684;BME280;58263;48.146;11.440;2024-03-17T03:27:21;96264.34;;;7.25;97.16
70684;BME280;58263;48.146;11.440;2024-03-17T03:29:46;96260.34;;;7.42;96.51
70684;BME280;58263;48.146;11.440;2024-03-17T03:32:11;96270.00;;;7.43;96.85
70684;BME280;58263;48.146;11.440;2024-03-17T03:34:37;96264.91;;;7.49;96.20
70684;BME280;58263;48.146;11.440;2024-03-17T03:37:02;96261.59;;;7.47;96.32
70684;BME280;58263;48.146;11.440;2024-03-17T03:39:27;96268.84;;;7.53;96.12
70684;BME280;58263;48.146;11.440;2024-03-17T03:41:56;96259.97;;;7.52;95.51
70684;BME280;58263;48.146;11.440;2024-03-17T03:44:22;96261.63;;;7.53;95.69
70684;BME280;58263;48.146;11.440;2024-03-17T03:46:47;96258.97;;;7.53;95.47
70684;BME280;58263;48.146;11.440;2024-03-17T03:49:13;96262.00;;;7.43;95.42
70684;BME280;58263;48.146;11.440;2024-03-17T03:51:38;96263.06;;;7.49;95.48
70684;BME280;58263;48.146;11.440;2024-03-17T03:54:04;96262.69;;;7.24;96.56
70684;BME280;58263;48.146;11.440;2024-03-17T03:56:31;96256.56;;;7.23;96.64
70684;BME280;58263;48.146;11.440;2024-03-17T03:58:57;96253.53;;;7.33;96.12
70684;BME280;58263;48.146;11.440;2024-03-17T04:01:22;96261.31;;;7.35;95.91
70684;BME280;58263;48.146;11.440;2024-03-17T04:03:48;96256.44;;;7.38;95.30
70684;BME280;58263;48.146;11.440;2024-03-17T04:06:14;96251.47;;;7.28;95.00
70684;BME280;58263;48.146;11.440;2024-03-17T04:08:41;96250.19;;;7.24;95.09
70684;BME280;58263;48.146;11.440;2024-03-17T04:11:06;96252.28;;;7.29;94.66
70684;BME280;58263;48.146;11.440;2024-03-17T04:13:32;96262.50;;;7.19;95.34
70684;BME280;58263;48.146;11.440;2024-03-17T04:16:04;96258.13;;;7.11;96.06
70684;BME280;58263;48.146;11.440;2024-03-17T04:18:30;96266.97;;;7.18;95.23
70684;BME280;58263;48.146;11.440;2024-03-17T04:20:56;96258.78;;;7.20;94.89
70684;BME280;58263;48.146;11.440;2024-03-17T04:23:23;96262.50;;;7.19;95.71
70684;BME280;58263;48.146;11.440;2024-03-17T04:25:50;96259.41;;;7.22;95.46
70684;BME280;58263;48.146;11.440;2024-03-17T04:28:16;96257.31;;;7.10;96.32
70684;BME280;58263;48.146;11.440;2024-03-17T04:30:41;96266.63;;;7.21;96.37
70684;BME280;58263;48.146;11.440;2024-03-17T04:33:08;96265.16;;;7.19;96.63
70684;BME280;58263;48.146;11.440;2024-03-17T04:35:39;96263.34;;;7.26;96.27
70684;BME280;58263;48.146;11.440;2024-03-17T04:38:05;96260.03;;;7.24;96.34
70684;BME280;58263;48.146;11.440;2024-03-17T04:40:32;96262.94;;;7.29;95.90
70684;BME280;58263;48.146;11.440;2024-03-17T04:42:57;96256.78;;;7.28;96.13
70684;BME280;58263;48.146;11.440;2024-03-17T04:45:22;96264.59;;;7.30;96.20
70684;BME280;58263;48.146;11.440;2024-03-17T04:47:47;96260.03;;;7.24;96.14
70684;BME280;58263;48.146;11.440;2024-03-17T04:50:13;96262.53;;;7.25;96.55
70684;BME280;58263;48.146;11.440;2024-03-17T04:52:38;96256.56;;;7.23;96.49
70684;BME280;58263;48.146;11.440;2024-03-17T04:55:04;96262.53;;;7.25;97.14
70684;BME280;58263;48.146;11.440;2024-03-17T04:57:29;96251.06;;;7.32;96.66
70684;BME280;58263;48.146;11.440;2024-03-17T04:59:55;96260.13;;;7.37;96.05
70684;BME280;58263;48.146;11.440;2024-03-17T05:02:20;96253.53;;;7.33;96.01
70684;BME280;58263;48.146;11.440;2024-03-17T05:04:46;96261.84;;;7.17;96.00
70684;BME280;58263;48.146;11.440;2024-03-17T05:07:11;96270.69;;;7.17;96.10
70684;BME280;58263;48.146;11.440;2024-03-17T05:09:37;96271.50;;;7.18;96.07
70684;BME280;58263;48.146;11.440;2024-03-17T05:12:02;96267.34;;;7.08;96.81
70684;BME280;58263;48.146;11.440;2024-03-17T05:14:27;96266.56;;;7.15;96.43
70684;BME280;58263;48.146;11.440;2024-03-17T05:16:53;96273.97;;;7.19;96.40
70684;BME280;58263;48.146;11.440;2024-03-17T05:19:18;96263.75;;;7.23;96.73
70684;BME280;58263;48.146;11.440;2024-03-17T05:21:44;96264.34;;;7.25;96.42
70684;BME280;58263;48.146;11.440;2024-03-17T05:24:10;96267.19;;;7.17;95.97
70684;BME280;58263;48.146;11.440;2024-03-17T05:26:36;96277.09;;;6.94;97.31
70684;BME280;58263;48.146;11.440;2024-03-17T05:29:01;96274.31;;;7.09;96.63
70684;BME280;58263;48.146;11.440;2024-03-17T05:31:27;96278.88;;;7.16;96.81
70684;BME280;58263;48.146;11.440;2024-03-17T05:33:52;96286.31;;;7.20;96.94
70684;BME280;58263;48.146;11.440;2024-03-17T05:36:18;96279.34;;;7.26;97.15
70684;BME280;58263;48.146;11.440;2024-03-17T05:38:45;96277.53;;;7.33;96.62
70684;BME280;58263;48.146;11.440;2024-03-17T05:41:10;96276.72;;;7.33;96.36
70684;BME280;58263;48.146;11.440;2024-03-17T05:43:37;96286.19;;;7.35;96.05
70684;BME280;58263;48.146;11.440;2024-03-17T05:46:09;96276.75;;;7.39;96.35
70684;BME280;58263;48.146;11.440;2024-03-17T05:48:40;96277.81;;;7.45;96.02
70684;BME280;58263;48.146;11.440;2024-03-17T05:51:06;96285.94;;;7.30;96.21
70684;BME280;58263;48.146;11.440;2024-03-17T05:53:32;96291.16;;;7.10;97.50
70684;BME280;58263;48.146;11.440;2024-03-17T05:56:01;96294.50;;;7.19;97.74
70684;BME280;58263;48.146;11.440;2024-03-17T05:58:27;96293.63;;;7.11;97.67
70684;BME280;58263;48.146;11.440;2024-03-17T06:00:52;96279.75;;;7.23;97.54
70684;BME280;58263;48.146;11.440;2024-03-17T06:03:17;96278.03;;;7.43;97.02
70684;BME280;58263;48.146;11.440;2024-03-17T06:05:43;96281.69;;;7.42;96.28
70684;BME280;58263;48.146;11.440;2024-03-17T06:08:12;96285.22;;;7.50;96.30
70684;BME280;58263;48.146;11.440;2024-03-17T06:10:41;96276.03;;;7.59;96.49
70684;BME280;58263;48.146;11.440;2024-03-17T06:13:07;96277.03;;;7.58;96.43
70684;BME280;58263;48.146;11.440;2024-03-17T06:15:37;96280.38;;;7.67;97.05
70684;BME280;58263;48.146;11.440;2024-03-17T06:18:03;96270.16;;;7.77;96.23
70684;BME280;58263;48.146;11.440;2024-03-17T06:20:28;96275.53;;;7.90;95.65
70684;BME280;58263;48.146;11.440;2024-03-17T06:22:54;96274.97;;;7.95;95.69
70684;BME280;58263;48.146;11.440;2024-03-17T06:25:20;96277.53;;;7.75;95.82
70684;BME280;58263;48.146;11.440;2024-03-17T06:27:49;96285.34;;;7.76;96.70
70684;BME280;58263;48.146;11.440;2024-03-17T06:30:14;96288.09;;;7.90;95.51
70684;BME280;58263;48.146;11.440;2024-03-17T06:32:40;96290.75;;;7.90;94.75
70684;BME280;58263;48.146;11.440;2024-03-17T06:35:06;96291.63;;;8.10;93.93
70684;BME280;58263;48.146;11.440;2024-03-17T06:37:32;96294.91;;;8.12;93.99
70684;BME280;58263;48.146;11.440;2024-03-17T06:39:58;96299.44;;;8.05;94.65
70684;BME280;58263;48.146;11.440;2024-03-17T06:42:23;96297.84;;;8.31;93.75
70684;BME280;58263;48.146;11.440;2024-03-17T06:44:48;96293.81;;;8.49;91.67
70684;BME280;58263;48.146;11.440;2024-03-17T06:47:14;96282.50;;;8.60;91.13
70684;BME280;58263;48.146;11.440;2024-03-17T06:49:39;96280.69;;;8.67;90.48
70684;BME280;58263;48.146;11.440;2024-03-17T06:52:04;96275.13;;;8.75;89.67
70684;BME280;58263;48.146;11.440;2024-03-17T06:54:30;96276.16;;;8.88;89.38
70684;BME280;58263;48.146;11.440;2024-03-17T06:56:58;96279.63;;;8.95;89.22
70684;BME280;58263;48.146;11.440;2024-03-17T06:59:23;96278.19;;;8.92;89.47
70684;BME280;58263;48.146;11.440;2024-03-17T07:01:49;96282.91;;;8.97;88.15
70684;BME280;58263;48.146;11.440;2024-03-17T07:04:15;96275.53;;;8.92;88.42
70684;BME280;58263;48.146;11.440;2024-03-17T07:06:41;96273.88;;;8.98;87.75
70684;BME280;58263;48.146;11.440;2024-03-17T07:09:06;96276.53;;;8.98;88.07
70684;BME280;58263;48.146;11.440;2024-03-17T07:11:33;96281.06;;;9.04;87.20
70684;BME280;58263;48.146;11.440;2024-03-17T07:13:59;96278.53;;;9.36;87.65
70684;BME280;58263;48.146;11.440;2024-03-17T07:16:24;96279.41;;;9.17;86.95
70684;BME280;58263;48.146;11.440;2024-03-17T07:18:52;96277.28;;;9.52;85.93
70684;BME280;58263;48.146;11.440;2024-03-17T07:21:18;96279.28;;;9.70;84.87
70684;BME280;58263;48.146;11.440;2024-03-17T07:23:43;96277.97;;;9.93;83.30
70684;BME280;58263;48.146;11.440;2024-03-17T07:26:08;96280.19;;;10.03;81.86
70684;BME280;58263;48.146;11.440;2024-03-17T07:28:34;96276.75;;;9.89;81.69
70684;BME280;58263;48.146;11.440;2024-03-17T07:31:00;96275.25;;;10.00;80.32
70684;BME280;58263;48.146;11.440;2024-03-17T07:33:26;96280.03;;;9.91;80.67
70684;BME280;58263;48.146;11.440;2024-03-17T07:35:53;96281.91;;;9.84;79.45
70684;BME280;58263;48.146;11.440;2024-03-17T07:38:19;96276.63;;;10.09;78.66
70684;BME280;58263;48.146;11.440;2024-03-17T07:40:45;96273.38;;;10.45;79.50
70684;BME280;58263;48.146;11.440;2024-03-17T07:43:19;96273.41;;;10.71;79.30
70684;BME280;58263;48.146;11.440;2024-03-17T07:45:45;96268.31;;;10.88;78.18
70684;BME280;58263;48.146;11.440;2024-03-17T07:48:11;96272.38;;;10.40;78.77
70684;BME280;58263;48.146;11.440;2024-03-17T07:50:36;96257.84;;;10.79;77.08
70684;BME280;58263;48.146;11.440;2024-03-17T07:53:02;96258.34;;;10.95;77.22
70684;BME280;58263;48.146;11.440;2024-03-17T07:55:27;96260.75;;;11.03;77.12
70684;BME280;58263;48.146;11.440;2024-03-17T07:57:55;96258.94;;;10.97;76.23
70684;BME280;58263;48.146;11.440;2024-03-17T08:00:20;96249.13;;;11.09;76.37
70684;BME280;58263;48.146;11.440;2024-03-17T08:02:47;96249.84;;;11.42;75.35
70684;BME280;58263;48.146;11.440;2024-03-17T08:05:13;96247.75;;;11.44;75.01
70684;BME280;58263;48.146;11.440;2024-03-17T08:07:39;96240.81;;;11.73;74.69
70684;BME280;58263;48.146;11.440;2024-03-17T08:10:04;96239.81;;;11.86;74.00
70684;BME280;58263;48.146;11.440;2024-03-17T08:12:30;96244.38;;;11.30;74.34
70684;BME280;58263;48.146;11.440;2024-03-17T08:14:55;96242.22;;;11.39;73.13
70684;BME280;58263;48.146;11.440;2024-03-17T08:17:20;96251.91;;;11.21;75.54
70684;BME280;58263;48.146;11.440;2024-03-17T08:19:45;96243.78;;;11.28;75.79
70684;BME280;58263;48.146;11.440;2024-03-17T08:22:11;96245.09;;;11.44;74.54
70684;BME280;58263;48.146;11.440;2024-03-17T08:24:36;96242.06;;;11.71;75.74
70684;BME280;58263;48.146;11.440;2024-03-17T08:27:01;96247.78;;;11.93;73.33
70684;BME280;58263;48.146;11.440;2024-03-17T08:29:26;96245.81;;;12.07;73.67
70684;BME280;58263;48.146;11.440;2024-03-17T08:31:52;96231.47;;;12.67;70.71
70684;BME280;58263;48.146;11.440;2024-03-17T08:34:18;96229.97;;;12.29;70.56
70684;BME280;58263;48.146;11.440;2024-03-17T08:36:43;96229.75;;;12.30;67.68
70684;BME280;58263;48.146;11.440;2024-03-17T08:39:08;96230.63;;;12.55;69.89
70684;BME280;58263;48.146;11.440;2024-03-17T08:41:36;96238.38;;;12.21;70.56
70684;BME280;58263;48.146;11.440;2024-03-17T08:44:01;96226.00;;;11.82;70.16
70684;BME280;58263;48.146;11.440;2024-03-17T08:46:26;96229.59;;;12.56;68.26
70684;BME280;58263;48.146;11.440;2024-03-17T08:48:52;96228.13;;;12.41;69.92
70684;BME280;58263;48.146;11.440;2024-03-17T08:51:17;96224.25;;;12.91;68.19
70684;BME280;58263;48.146;11.440;2024-03-17T08:53:42;96211.38;;;13.41;65.43
70684;BME280;58263;48.146;11.440;2024-03-17T08:56:07;96215.34;;;13.02;66.26
70684;BME280;58263;48.146;11.440;2024-03-17T08:58:33;96212.06;;;12.89;67.03
70684;BME280;58263;48.146;11.440;2024-03-17T09:00:58;96200.94;;;13.44;66.14
70684;BME280;58263;48.146;11.440;2024-03-17T09:03:24;96205.50;;;13.84;65.65
70684;BME280;58263;48.146;11.440;2024-03-17T09:05:50;96197.69;;;14.29;63.74
70684;BME280;58263;48.146;11.440;2024-03-17T09:08:21;96199.06;;;14.60;62.64
70684;BME280;58263;48.146;11.440;2024-03-17T09:10:48;96185.88;;;14.98;61.78
70684;BME280;58263;48.146;11.440;2024-03-17T09:13:18;96182.22;;;15.04;60.41
70684;BME280;58263;48.146;11.440;2024-03-17T09:15:58;96182.66;;;15.57;58.90
70684;BME280;58263;48.146;11.440;2024-03-17T09:18:30;96186.47;;;16.05;58.00
70684;BME280;58263;48.146;11.440;2024-03-17T09:21:02;96182.88;;;16.54;55.74
70684;BME280;58263;48.146;11.440;2024-03-17T09:23:28;96179.50;;;17.02;54.11
70684;BME280;58263;48.146;11.440;2024-03-17T09:25:58;96181.50;;;17.70;52.55
70684;BME280;58263;48.146;11.440;2024-03-17T09:28:24;96186.56;;;18.35;49.32
70684;BME280;58263;48.146;11.440;2024-03-17T09:30:49;96187.19;;;18.88;47.91
70684;BME280;58263;48.146;11.440;2024-03-17T09:33:15;96176.78;;;19.42;45.55
70684;BME280;58263;48.146;11.440;2024-03-17T09:35:40;96181.50;;;19.97;44.23
70684;BME280;58263;48.146;11.440;2024-03-17T09:38:05;96177.72;;;19.87;43.74
70684;BME280;58263;48.146;11.440;2024-03-17T09:40:30;96175.25;;;19.91;43.12
70684;BME280;58263;48.146;11.440;2024-03-17T09:42:56;96167.03;;;20.01;43.88
70684;BME280;58263;48.146;11.440;2024-03-17T09:45:23;96165.59;;;20.14;43.71
70684;BME280;58263;48.146;11.440;2024-03-17T09:47:49;96163.69;;;20.15;43.50
70684;BME280;58263;48.146;11.440;2024-03-17T09:50:14;96154.63;;;20.24;43.02
70684;BME280;58263;48.146;11.440;2024-03-17T09:52:42;96159.84;;;20.21;42.22
70684;BME280;58263;48.146;11.440;2024-03-17T09:55:15;96155.94;;;19.87;42.92
70684;BME280;58263;48.146;11.440;2024-03-17T09:57:42;96154.06;;;19.83;42.78
70684;BME280;58263;48.146;11.440;2024-03-17T10:00:11;96154.53;;;20.00;42.37
70684;BME280;58263;48.146;11.440;2024-03-17T10:02:44;96157.56;;;19.78;41.60
70684;BME280;58263;48.146;11.440;2024-03-17T10:05:24;96159.28;;;19.58;41.17
70684;BME280;58263;48.146;11.440;2024-03-17T10:07:50;96154.91;;;19.73;42.84
70684;BME280;58263;48.146;11.440;2024-03-17T10:10:17;96160.34;;;19.68;42.43
70684;BME280;58263;48.146;11.440;2024-03-17T10:12:43;96166.31;;;19.70;42.73
70684;BME280;58263;48.146;11.440;2024-03-17T10:15:12;96152.69;;;19.75;41.14
70684;BME280;58263;48.146;11.440;2024-03-17T10:17:38;96161.22;;;19.53;42.62
70684;BME280;58263;48.146;11.440;2024-03-17T10:20:20;96156.59;;;19.53;43.64
70684;BME280;58263;48.146;11.440;2024-03-17T10:22:58;96153.34;;;19.46;41.07
70684;BME280;58263;48.146;11.440;2024-03-17T10:25:27;96155.78;;;19.48;42.40
70684;BME280;58263;48.146;11.440;2024-03-17T10:27:54;96152.75;;;19.65;42.22
70684;BME280;58263;48.146;11.440;2024-03-17T10:30:20;96153.75;;;19.79;41.89
70684;BME280;58263;48.146;11.440;2024-03-17T10:32:52;96144.53;;;19.70;40.97
70684;BME280;58263;48.146;11.440;2024-03-17T10:35:33;96140.47;;;19.67;41.81
70684;BME280;58263;48.146;11.440;2024-03-17T10:38:00;96142.50;;;20.06;41.58
70684;BME280;58263;48.146;11.440;2024-03-17T10:40:28;96144.41;;;21.15;39.12
70684;BME280;58263;48.146;11.440;2024-03-17T10:42:55;96140.72;;;21.54;38.45
70684;BME280;58263;48.146;11.440;2024-03-17T10:45:20;96138.59;;;21.94;37.28
70684;BME280;58263;48.146;11.440;2024-03-17T10:47:48;96137.06;;;22.78;36.43
70684;BME280;58263;48.146;11.440;2024-03-17T10:50:19;96140.34;;;23.13;36.25
70684;BME280;58263;48.146;11.440;2024-03-17T10:52:47;96143.66;;;24.58;33.67
70684;BME280;58263;48.146;11.440;2024-03-17T10:55:21;96131.50;;;26.16;30.62
70684;BME280;58263;48.146;11.440;2024-03-17T10:57:51;96126.41;;;25.83;30.62
70684;BME280;58263;48.146;11.440;2024-03-17T11:00:21;96127.97;;;26.42;30.80
70684;BME280;58263;48.146;11.440;2024-03-17T11:02:48;96121.88;;;27.27;28.76
70684;BME280;58263;48.146;11.440;2024-03-17T11:05:16;96123.34;;;27.93;27.97
70684;BME280;58263;48.146;11.440;2024-03-17T11:07:41;96114.03;;;27.47;27.39
70684;BME280;58263;48.146;11.440;2024-03-17T11:10:22;96115.66;;;26.57;28.58
70684;BME280;58263;48.146;11.440;2024-03-17T11:12:49;96109.91;;;28.01;26.75
70684;BME280;58263;48.146;11.440;2024-03-17T11:15:35;96097.25;;;29.67;25.29
70684;BME280;58263;48.146;11.440;2024-03-17T11:20:33;96094.53;;;30.32;24.20
70684;BME280;58263;48.146;11.440;2024-03-17T11:22:59;96088.69;;;30.62;24.11
70684;BME280;58263;48.146;11.440;2024-03-17T11:28:07;96099.13;;;30.97;22.20
70684;BME280;58263;48.146;11.440;2024-03-17T11:46:52;96084.38;;;32.21;21.00
70684;BME280;58263;48.146;11.440;2024-03-17T11:49:28;96084.94;;;31.59;21.28
70684;BME280;58263;48.146;11.440;2024-03-17T11:51:56;96087.22;;;31.25;22.53
70684;BME280;58263;48.146;11.440;2024-03-17T11:54:23;96088.84;;;29.76;23.49
70684;BME280;58263;48.146;11.440;2024-03-17T11:56:51;96085.94;;;28.13;25.59
70684;BME280;58263;48.146;11.440;2024-03-17T11:59:17;96089.41;;;26.68;27.28
70684;BME280;58263;48.146;11.440;2024-03-17T12:01:46;96090.72;;;26.53;27.85
70684;BME280;58263;48.146;11.440;2024-03-17T12:04:16;96087.91;;;27.06;27.55
70684;BME280;58263;48.146;11.440;2024-03-17T12:06:46;96078.22;;;27.77;26.22
70684;BME280;58263;48.146;11.440;2024-03-17T12:09:26;96079.56;;;26.58;27.03
70684;BME280;58263;48.146;11.440;2024-03-17T12:12:05;96080.56;;;25.52;28.68
70684;BME280;58263;48.146;11.440;2024-03-17T12:14:32;96068.69;;;25.25;29.51
70684;BME280;58263;48.146;11.440;2024-03-17T12:17:00;96069.25;;;25.45;29.49
70684;BME280;58263;48.146;11.440;2024-03-17T12:19:27;96060.06;;;24.78;29.97
70684;BME280;58263;48.146;11.440;2024-03-17T12:21:53;96058.22;;;24.96;29.95
70684;BME280;58263;48.146;11.440;2024-03-17T12:24:24;96052.31;;;24.80;30.83
70684;BME280;58263;48.146;11.440;2024-03-17T12:26:52;96044.00;;;24.62;30.88
70684;BME280;58263;48.146;11.440;2024-03-17T12:29:37;96039.53;;;24.53;30.42
70684;BME280;58263;48.146;11.440;2024-03-17T12:32:11;96025.91;;;24.61;30.24
70684;BME280;58263;48.146;11.440;2024-03-17T12:34:38;96031.59;;;24.65;30.86
70684;BME280;58263;48.146;11.440;2024-03-17T12:37:04;96039.28;;;25.92;29.93
70684;BME280;58263;48.146;11.440;2024-03-17T12:39:31;96026.56;;;26.96;28.87
70684;BME280;58263;48.146;11.440;2024-03-17T12:42:16;96033.94;;;27.13;27.77
70684;BME280;58263;48.146;11.440;2024-03-17T12:45:01;96035.06;;;26.56;28.09
70684;BME280;58263;48.146;11.440;2024-03-17T12:47:30;96026.97;;;25.72;29.01
70684;BME280;58263;48.146;11.440;2024-03-17T12:49:57;96024.25;;;25.81;28.81
70684;BME280;58263;48.146;11.440;2024-03-17T12:52:30;96022.47;;;25.27;30.10
70684;BME280;58263;48.146;11.440;2024-03-17T12:55:06;96017.88;;;24.96;30.07
70684;BME280;58263;48.146;11.440;2024-03-17T12:57:53;96018.50;;;24.62;30.32
70684;BME280;58263;48.146;11.440;2024-03-17T13:03:25;96029.56;;;23.75;31.16
70684;BME280;58263;48.146;11.440;2024-03-17T13:05:50;96020.31;;;23.48;31.76
70684;BME280;58263;48.146;11.440;2024-03-17T13:08:16;96023.56;;;23.08;32.79
70684;BME280;58263;48.146;11.440;2024-03-17T13:10:41;96029.75;;;22.53;33.50
70684;BME280;58263;48.146;11.440;2024-03-17T13:13:12;96028.03;;;22.24;33.33
70684;BME280;58263;48.146;11.440;2024-03-17T13:15:38;96025.75;;;22.12;33.36
70684;BME280;58263;48.146;11.440;2024-03-17T13:18:04;96023.03;;;21.93;34.61
70684;BME280;58263;48.146;11.440;2024-03-17T13:20:33;96022.03;;;22.41;33.94